sensor_id;sensor_type;location;lat;lon;timestamp;P1;durP1;ratioP1;P2;durP2;ratioP2
69244;SDS011;56357;52.304;4.870;2022-11-10T00:00:32;6.05;;;1.10;;
69244;SDS011;56357;52.304;4.870;2022-11-10T00:03:03;4.85;;;0.73;;
69244;SDS011;56357;52.304;4.870;2022-11-10T00:05:31;5.60;;;1.00;;
69244;SDS011;56357;52.304;4.870;2022-11-10T00:08:02;4.50;;;0.70;;
69244;SDS011;56357;52.304;4.870;2022-11-10T00:10:30;7.43;;;1.05;;
69244;SDS011;56357;52.304;4.870;2022-11-10T00:13:00;5.75;;;1.13;;
69244;SDS011;56357;52.304;4.870;2022-11-10T00:15:29;4.50;;;0.77;;
69244;SDS011;56357;52.304;4.870;2022-11-10T00:18:13;6.72;;;0.65;;
69244;SDS011;56357;52.304;4.870;2022-11-10T00:20:39;5.77;;;1.00;;
69244;SDS011;56357;52.304;4.870;2022-11-10T00:23:06;6.15;;;0.75;;
69244;SDS011;56357;52.304;4.870;2022-11-10T00:25:32;4.93;;;0.60;;
69244;SDS011;56357;52.304;4.870;2022-11-10T00:27:59;6.32;;;0.90;;
69244;SDS011;56357;52.304;4.870;2022-11-10T00:30:25;6.65;;;0.88;;
69244;SDS011;56357;52.304;4.870;2022-11-10T00:32:52;4.63;;;0.90;;
69244;SDS011;56357;52.304;4.870;2022-11-10T00:35:18;5.32;;;1.02;;
69244;SDS011;56357;52.304;4.870;2022-11-10T00:37:44;5.72;;;0.95;;
69244;SDS011;56357;52.304;4.870;2022-11-10T00:40:11;6.68;;;1.05;;
69244;SDS011;56357;52.304;4.870;2022-11-10T00:42:37;7.07;;;0.90;;
69244;SDS011;56357;52.304;4.870;2022-11-10T00:45:04;7.50;;;0.87;;
69244;SDS011;56357;52.304;4.870;2022-11-10T00:47:30;6.82;;;1.00;;
69244;SDS011;56357;52.304;4.870;2022-11-10T00:49:57;5.57;;;0.80;;
69244;SDS011;56357;52.304;4.870;2022-11-10T00:52:23;5.85;;;0.90;;
69244;SDS011;56357;52.304;4.870;2022-11-10T00:54:50;6.50;;;1.00;;
69244;SDS011;56357;52.304;4.870;2022-11-10T00:57:16;5.93;;;1.10;;
69244;SDS011;56357;52.304;4.870;2022-11-10T00:59:42;6.05;;;0.88;;
69244;SDS011;56357;52.304;4.870;2022-11-10T01:02:09;6.28;;;1.08;;
69244;SDS011;56357;52.304;4.870;2022-11-10T01:04:35;6.80;;;0.93;;
69244;SDS011;56357;52.304;4.870;2022-11-10T01:07:01;7.40;;;1.10;;
69244;SDS011;56357;52.304;4.870;2022-11-10T01:09:28;7.73;;;1.00;;
69244;SDS011;56357;52.304;4.870;2022-11-10T01:11:54;6.07;;;0.77;;
69244;SDS011;56357;52.304;4.870;2022-11-10T01:14:20;6.65;;;1.15;;
69244;SDS011;56357;52.304;4.870;2022-11-10T01:16:47;4.72;;;0.77;;
69244;SDS011;56357;52.304;4.870;2022-11-10T01:19:13;5.50;;;0.90;;
69244;SDS011;56357;52.304;4.870;2022-11-10T01:21:39;5.80;;;0.70;;
69244;SDS011;56357;52.304;4.870;2022-11-10T01:24:05;6.35;;;0.90;;
69244;SDS011;56357;52.304;4.870;2022-11-10T01:26:32;5.45;;;0.95;;
69244;SDS011;56357;52.304;4.870;2022-11-10T01:28:58;6.15;;;1.00;;
69244;SDS011;56357;52.304;4.870;2022-11-10T01:31:25;8.38;;;1.20;;
69244;SDS011;56357;52.304;4.870;2022-11-10T01:33:51;6.10;;;0.93;;
69244;SDS011;56357;52.304;4.870;2022-11-10T01:36:17;6.10;;;0.90;;
69244;SDS011;56357;52.304;4.870;2022-11-10T01:38:44;5.22;;;1.17;;
69244;SDS011;56357;52.304;4.870;2022-11-10T01:41:11;4.65;;;0.65;;
69244;SDS011;56357;52.304;4.870;2022-11-10T01:43:39;6.18;;;0.90;;
69244;SDS011;56357;52.304;4.870;2022-11-10T01:46:07;6.67;;;1.30;;
69244;SDS011;56357;52.304;4.870;2022-11-10T01:51:15;6.15;;;1.00;;
69244;SDS011;56357;52.304;4.870;2022-11-10T01:53:48;6.05;;;0.75;;
69244;SDS011;56357;52.304;4.870;2022-11-10T01:56:16;6.55;;;1.02;;
69244;SDS011;56357;52.304;4.870;2022-11-10T01:58:44;6.30;;;1.10;;
69244;SDS011;56357;52.304;4.870;2022-11-10T02:01:15;6.82;;;1.10;;
69244;SDS011;56357;52.304;4.870;2022-11-10T02:06:16;5.82;;;1.00;;
69244;SDS011;56357;52.304;4.870;2022-11-10T02:08:45;6.00;;;0.77;;
69244;SDS011;56357;52.304;4.870;2022-11-10T02:11:12;7.30;;;1.37;;
69244;SDS011;56357;52.304;4.870;2022-11-10T02:13:39;7.45;;;0.98;;
69244;SDS011;56357;52.304;4.870;2022-11-10T02:16:06;5.90;;;0.90;;
69244;SDS011;56357;52.304;4.870;2022-11-10T02:18:32;4.70;;;0.88;;
69244;SDS011;56357;52.304;4.870;2022-11-10T02:21:01;7.32;;;1.10;;
69244;SDS011;56357;52.304;4.870;2022-11-10T02:25:55;7.32;;;1.15;;
69244;SDS011;56357;52.304;4.870;2022-11-10T02:28:23;5.85;;;1.13;;
69244;SDS011;56357;52.304;4.870;2022-11-10T02:30:51;6.47;;;1.00;;
69244;SDS011;56357;52.304;4.870;2022-11-10T02:33:18;6.00;;;1.05;;
69244;SDS011;56357;52.304;4.870;2022-11-10T02:35:45;7.47;;;1.10;;
69244;SDS011;56357;52.304;4.870;2022-11-10T02:38:12;7.07;;;1.13;;
69244;SDS011;56357;52.304;4.870;2022-11-10T02:40:39;6.70;;;1.00;;
69244;SDS011;56357;52.304;4.870;2022-11-10T02:43:08;6.97;;;1.27;;
69244;SDS011;56357;52.304;4.870;2022-11-10T02:45:37;7.15;;;0.70;;
69244;SDS011;56357;52.304;4.870;2022-11-10T02:48:09;7.60;;;1.20;;
69244;SDS011;56357;52.304;4.870;2022-11-10T02:50:36;6.13;;;0.80;;
69244;SDS011;56357;52.304;4.870;2022-11-10T02:53:04;5.72;;;0.90;;
69244;SDS011;56357;52.304;4.870;2022-11-10T02:55:30;7.40;;;1.17;;
69244;SDS011;56357;52.304;4.870;2022-11-10T02:57:57;6.05;;;0.90;;
69244;SDS011;56357;52.304;4.870;2022-11-10T03:00:25;7.87;;;1.13;;
69244;SDS011;56357;52.304;4.870;2022-11-10T03:02:58;6.88;;;0.93;;
69244;SDS011;56357;52.304;4.870;2022-11-10T03:05:26;6.03;;;1.10;;
69244;SDS011;56357;52.304;4.870;2022-11-10T03:07:57;4.00;;;0.65;;
69244;SDS011;56357;52.304;4.870;2022-11-10T03:10:25;5.32;;;0.93;;
69244;SDS011;56357;52.304;4.870;2022-11-10T03:12:52;13.67;;;1.27;;
69244;SDS011;56357;52.304;4.870;2022-11-10T03:15:20;6.82;;;0.85;;
69244;SDS011;56357;52.304;4.870;2022-11-10T03:17:46;7.30;;;0.70;;
69244;SDS011;56357;52.304;4.870;2022-11-10T03:20:13;7.15;;;1.15;;
69244;SDS011;56357;52.304;4.870;2022-11-10T03:22:39;6.38;;;1.10;;
69244;SDS011;56357;52.304;4.870;2022-11-10T03:25:06;7.63;;;1.37;;
69244;SDS011;56357;52.304;4.870;2022-11-10T03:27:33;7.25;;;1.05;;
69244;SDS011;56357;52.304;4.870;2022-11-10T03:29:59;7.30;;;1.20;;
69244;SDS011;56357;52.304;4.870;2022-11-10T03:32:25;5.32;;;1.08;;
69244;SDS011;56357;52.304;4.870;2022-11-10T03:34:52;8.60;;;1.08;;
69244;SDS011;56357;52.304;4.870;2022-11-10T03:37:18;6.22;;;0.90;;
69244;SDS011;56357;52.304;4.870;2022-11-10T03:39:44;7.38;;;1.23;;
69244;SDS011;56357;52.304;4.870;2022-11-10T03:42:11;6.07;;;0.93;;
69244;SDS011;56357;52.304;4.870;2022-11-10T03:44:37;5.72;;;0.75;;
69244;SDS011;56357;52.304;4.870;2022-11-10T03:47:03;7.25;;;1.00;;
69244;SDS011;56357;52.304;4.870;2022-11-10T03:49:30;6.30;;;1.10;;
69244;SDS011;56357;52.304;4.870;2022-11-10T03:51:56;5.90;;;1.17;;
69244;SDS011;56357;52.304;4.870;2022-11-10T03:54:23;8.38;;;1.10;;
69244;SDS011;56357;52.304;4.870;2022-11-10T03:56:49;7.18;;;1.45;;
69244;SDS011;56357;52.304;4.870;2022-11-10T03:59:15;5.35;;;0.88;;
69244;SDS011;56357;52.304;4.870;2022-11-10T04:01:42;8.70;;;1.27;;
69244;SDS011;56357;52.304;4.870;2022-11-10T04:04:09;5.10;;;1.10;;
69244;SDS011;56357;52.304;4.870;2022-11-10T04:06:57;7.97;;;1.13;;
69244;SDS011;56357;52.304;4.870;2022-11-10T04:09:41;7.15;;;1.08;;
69244;SDS011;56357;52.304;4.870;2022-11-10T04:12:07;7.22;;;0.98;;
69244;SDS011;56357;52.304;4.870;2022-11-10T04:14:51;6.37;;;1.00;;
69244;SDS011;56357;52.304;4.870;2022-11-10T04:17:35;8.57;;;1.08;;
69244;SDS011;56357;52.304;4.870;2022-11-10T04:20:01;5.00;;;0.90;;
69244;SDS011;56357;52.304;4.870;2022-11-10T04:22:28;8.02;;;1.10;;
69244;SDS011;56357;52.304;4.870;2022-11-10T04:25:08;5.63;;;0.95;;
69244;SDS011;56357;52.304;4.870;2022-11-10T04:27:35;6.03;;;1.07;;
69244;SDS011;56357;52.304;4.870;2022-11-10T04:30:01;6.68;;;1.25;;
69244;SDS011;56357;52.304;4.870;2022-11-10T04:32:28;8.02;;;1.15;;
69244;SDS011;56357;52.304;4.870;2022-11-10T04:34:54;7.57;;;1.23;;
69244;SDS011;56357;52.304;4.870;2022-11-10T04:37:20;9.07;;;1.02;;
69244;SDS011;56357;52.304;4.870;2022-11-10T04:39:47;6.07;;;0.90;;
69244;SDS011;56357;52.304;4.870;2022-11-10T04:42:13;8.80;;;1.05;;
69244;SDS011;56357;52.304;4.870;2022-11-10T04:44:39;8.52;;;0.90;;
69244;SDS011;56357;52.304;4.870;2022-11-10T04:47:06;7.03;;;0.90;;
69244;SDS011;56357;52.304;4.870;2022-11-10T04:49:32;9.07;;;1.23;;
69244;SDS011;56357;52.304;4.870;2022-11-10T04:51:58;6.63;;;1.30;;
69244;SDS011;56357;52.304;4.870;2022-11-10T04:54:25;8.50;;;1.20;;
69244;SDS011;56357;52.304;4.870;2022-11-10T04:56:51;7.15;;;0.88;;
69244;SDS011;56357;52.304;4.870;2022-11-10T04:59:18;8.82;;;1.10;;
69244;SDS011;56357;52.304;4.870;2022-11-10T05:01:44;6.13;;;1.20;;
69244;SDS011;56357;52.304;4.870;2022-11-10T05:04:10;8.03;;;0.83;;
69244;SDS011;56357;52.304;4.870;2022-11-10T05:06:37;7.43;;;1.02;;
69244;SDS011;56357;52.304;4.870;2022-11-10T05:09:03;6.57;;;1.05;;
69244;SDS011;56357;52.304;4.870;2022-11-10T05:11:29;5.90;;;0.80;;
69244;SDS011;56357;52.304;4.870;2022-11-10T05:13:56;8.43;;;0.95;;
69244;SDS011;56357;52.304;4.870;2022-11-10T05:16:22;7.37;;;1.37;;
69244;SDS011;56357;52.304;4.870;2022-11-10T05:18:48;4.93;;;0.70;;
69244;SDS011;56357;52.304;4.870;2022-11-10T05:21:18;9.05;;;0.90;;
69244;SDS011;56357;52.304;4.870;2022-11-10T05:23:44;4.85;;;0.73;;
69244;SDS011;56357;52.304;4.870;2022-11-10T05:26:12;6.38;;;0.90;;
69244;SDS011;56357;52.304;4.870;2022-11-10T05:28:40;6.90;;;1.20;;
69244;SDS011;56357;52.304;4.870;2022-11-10T05:31:08;7.05;;;1.08;;
69244;SDS011;56357;52.304;4.870;2022-11-10T05:33:35;5.70;;;1.05;;
69244;SDS011;56357;52.304;4.870;2022-11-10T05:36:03;6.63;;;1.02;;
69244;SDS011;56357;52.304;4.870;2022-11-10T05:38:31;6.38;;;0.93;;
69244;SDS011;56357;52.304;4.870;2022-11-10T05:40:57;8.07;;;1.17;;
69244;SDS011;56357;52.304;4.870;2022-11-10T05:43:24;8.80;;;1.15;;
69244;SDS011;56357;52.304;4.870;2022-11-10T05:45:50;7.68;;;0.95;;
69244;SDS011;56357;52.304;4.870;2022-11-10T05:48:17;5.88;;;1.20;;
69244;SDS011;56357;52.304;4.870;2022-11-10T05:50:43;5.40;;;0.75;;
69244;SDS011;56357;52.304;4.870;2022-11-10T05:53:10;7.53;;;1.10;;
69244;SDS011;56357;52.304;4.870;2022-11-10T05:55:36;8.95;;;0.90;;
69244;SDS011;56357;52.304;4.870;2022-11-10T05:58:03;9.65;;;1.20;;
69244;SDS011;56357;52.304;4.870;2022-11-10T06:00:30;7.95;;;0.75;;
69244;SDS011;56357;52.304;4.870;2022-11-10T06:02:57;8.93;;;1.02;;
69244;SDS011;56357;52.304;4.870;2022-11-10T06:05:25;6.13;;;1.13;;
69244;SDS011;56357;52.304;4.870;2022-11-10T06:07:54;8.25;;;1.20;;
69244;SDS011;56357;52.304;4.870;2022-11-10T06:10:20;4.43;;;0.70;;
69244;SDS011;56357;52.304;4.870;2022-11-10T06:12:47;6.95;;;0.90;;
69244;SDS011;56357;52.304;4.870;2022-11-10T06:15:13;8.57;;;1.00;;
69244;SDS011;56357;52.304;4.870;2022-11-10T06:17:40;7.50;;;1.20;;
69244;SDS011;56357;52.304;4.870;2022-11-10T06:20:07;9.13;;;1.17;;
69244;SDS011;56357;52.304;4.870;2022-11-10T06:22:34;12.57;;;1.13;;
69244;SDS011;56357;52.304;4.870;2022-11-10T06:25:01;8.65;;;1.23;;
69244;SDS011;56357;52.304;4.870;2022-11-10T06:27:28;9.75;;;1.40;;
69244;SDS011;56357;52.304;4.870;2022-11-10T06:29:54;9.40;;;0.90;;
69244;SDS011;56357;52.304;4.870;2022-11-10T06:32:20;9.68;;;1.23;;
69244;SDS011;56357;52.304;4.870;2022-11-10T06:34:47;8.07;;;1.10;;
69244;SDS011;56357;52.304;4.870;2022-11-10T06:37:14;15.32;;;2.00;;
69244;SDS011;56357;52.304;4.870;2022-11-10T06:39:40;9.43;;;1.45;;
69244;SDS011;56357;52.304;4.870;2022-11-10T06:42:07;9.10;;;1.43;;
69244;SDS011;56357;52.304;4.870;2022-11-10T06:44:33;9.02;;;1.52;;
69244;SDS011;56357;52.304;4.870;2022-11-10T06:47:00;8.73;;;1.55;;
69244;SDS011;56357;52.304;4.870;2022-11-10T06:49:26;9.68;;;1.20;;
69244;SDS011;56357;52.304;4.870;2022-11-10T06:51:53;6.70;;;1.38;;
69244;SDS011;56357;52.304;4.870;2022-11-10T06:54:19;17.17;;;1.40;;
69244;SDS011;56357;52.304;4.870;2022-11-10T06:56:46;10.52;;;1.10;;
69244;SDS011;56357;52.304;4.870;2022-11-10T06:59:12;9.57;;;1.30;;
69244;SDS011;56357;52.304;4.870;2022-11-10T07:01:38;12.25;;;1.73;;
69244;SDS011;56357;52.304;4.870;2022-11-10T07:04:05;12.05;;;1.65;;
69244;SDS011;56357;52.304;4.870;2022-11-10T07:06:31;12.10;;;1.57;;
69244;SDS011;56357;52.304;4.870;2022-11-10T07:08:57;16.30;;;2.10;;
69244;SDS011;56357;52.304;4.870;2022-11-10T07:11:24;16.02;;;2.13;;
69244;SDS011;56357;52.304;4.870;2022-11-10T07:13:50;13.50;;;1.52;;
69244;SDS011;56357;52.304;4.870;2022-11-10T07:16:16;18.15;;;1.85;;
69244;SDS011;56357;52.304;4.870;2022-11-10T07:18:43;15.63;;;1.57;;
69244;SDS011;56357;52.304;4.870;2022-11-10T07:21:11;19.38;;;1.70;;
69244;SDS011;56357;52.304;4.870;2022-11-10T07:23:38;14.68;;;1.40;;
69244;SDS011;56357;52.304;4.870;2022-11-10T07:26:04;14.63;;;2.10;;
69244;SDS011;56357;52.304;4.870;2022-11-10T07:28:31;17.83;;;1.88;;
69244;SDS011;56357;52.304;4.870;2022-11-10T07:31:00;11.73;;;2.00;;
69244;SDS011;56357;52.304;4.870;2022-11-10T07:33:27;12.70;;;1.20;;
69244;SDS011;56357;52.304;4.870;2022-11-10T07:35:55;14.35;;;1.58;;
69244;SDS011;56357;52.304;4.870;2022-11-10T07:38:22;14.30;;;1.73;;
69244;SDS011;56357;52.304;4.870;2022-11-10T07:40:49;13.10;;;1.30;;
69244;SDS011;56357;52.304;4.870;2022-11-10T07:43:18;14.77;;;1.33;;
69244;SDS011;56357;52.304;4.870;2022-11-10T07:45:45;9.82;;;1.48;;
69244;SDS011;56357;52.304;4.870;2022-11-10T07:48:11;12.07;;;1.67;;
69244;SDS011;56357;52.304;4.870;2022-11-10T07:50:38;14.95;;;2.13;;
69244;SDS011;56357;52.304;4.870;2022-11-10T07:53:14;12.98;;;1.48;;
69244;SDS011;56357;52.304;4.870;2022-11-10T07:55:43;12.70;;;1.20;;
69244;SDS011;56357;52.304;4.870;2022-11-10T07:58:11;11.02;;;1.25;;
69244;SDS011;56357;52.304;4.870;2022-11-10T08:00:39;8.95;;;1.40;;
69244;SDS011;56357;52.304;4.870;2022-11-10T08:03:07;11.52;;;1.77;;
69244;SDS011;56357;52.304;4.870;2022-11-10T08:05:36;12.85;;;1.77;;
69244;SDS011;56357;52.304;4.870;2022-11-10T08:08:03;11.80;;;1.63;;
69244;SDS011;56357;52.304;4.870;2022-11-10T08:10:31;12.07;;;1.60;;
69244;SDS011;56357;52.304;4.870;2022-11-10T08:12:59;11.00;;;1.30;;
69244;SDS011;56357;52.304;4.870;2022-11-10T08:15:27;7.70;;;1.30;;
69244;SDS011;56357;52.304;4.870;2022-11-10T08:17:58;9.40;;;1.73;;
69244;SDS011;56357;52.304;4.870;2022-11-10T08:20:25;13.90;;;1.70;;
69244;SDS011;56357;52.304;4.870;2022-11-10T08:22:55;10.25;;;1.60;;
69244;SDS011;56357;52.304;4.870;2022-11-10T08:25:27;11.93;;;2.10;;
69244;SDS011;56357;52.304;4.870;2022-11-10T08:28:27;15.80;;;2.45;;
69244;SDS011;56357;52.304;4.870;2022-11-10T08:30:46;10.38;;;1.10;;
69244;SDS011;56357;52.304;4.870;2022-11-10T08:33:14;8.45;;;1.40;;
69244;SDS011;56357;52.304;4.870;2022-11-10T08:35:43;9.05;;;0.88;;
69244;SDS011;56357;52.304;4.870;2022-11-10T08:38:12;10.40;;;1.92;;
69244;SDS011;56357;52.304;4.870;2022-11-10T08:40:40;9.18;;;1.10;;
69244;SDS011;56357;52.304;4.870;2022-11-10T08:43:07;10.98;;;1.75;;
69244;SDS011;56357;52.304;4.870;2022-11-10T08:45:37;11.60;;;1.10;;
69244;SDS011;56357;52.304;4.870;2022-11-10T08:48:09;10.63;;;1.75;;
69244;SDS011;56357;52.304;4.870;2022-11-10T08:50:41;13.32;;;1.40;;
69244;SDS011;56357;52.304;4.870;2022-11-10T08:53:12;9.02;;;1.27;;
69244;SDS011;56357;52.304;4.870;2022-11-10T08:55:40;8.48;;;1.05;;
69244;SDS011;56357;52.304;4.870;2022-11-10T08:58:15;9.43;;;1.40;;
69244;SDS011;56357;52.304;4.870;2022-11-10T09:00:43;7.88;;;1.10;;
69244;SDS011;56357;52.304;4.870;2022-11-10T09:03:11;11.82;;;1.52;;
69244;SDS011;56357;52.304;4.870;2022-11-10T09:05:38;8.13;;;1.23;;
69244;SDS011;56357;52.304;4.870;2022-11-10T09:08:06;6.32;;;1.13;;
69244;SDS011;56357;52.304;4.870;2022-11-10T09:10:33;7.37;;;1.17;;
69244;SDS011;56357;52.304;4.870;2022-11-10T09:13:02;8.00;;;1.20;;
69244;SDS011;56357;52.304;4.870;2022-11-10T09:15:29;11.10;;;1.30;;
69244;SDS011;56357;52.304;4.870;2022-11-10T09:17:57;9.63;;;1.33;;
69244;SDS011;56357;52.304;4.870;2022-11-10T09:20:28;7.80;;;1.10;;
69244;SDS011;56357;52.304;4.870;2022-11-10T09:22:55;6.03;;;1.17;;
69244;SDS011;56357;52.304;4.870;2022-11-10T09:25:22;9.73;;;1.10;;
69244;SDS011;56357;52.304;4.870;2022-11-10T09:27:49;11.00;;;1.10;;
69244;SDS011;56357;52.304;4.870;2022-11-10T09:30:15;10.02;;;1.48;;
69244;SDS011;56357;52.304;4.870;2022-11-10T09:32:42;8.40;;;1.50;;
69244;SDS011;56357;52.304;4.870;2022-11-10T09:35:10;8.23;;;1.50;;
69244;SDS011;56357;52.304;4.870;2022-11-10T09:37:38;9.20;;;1.00;;
69244;SDS011;56357;52.304;4.870;2022-11-10T09:40:05;6.18;;;1.15;;
69244;SDS011;56357;52.304;4.870;2022-11-10T09:42:32;6.72;;;1.13;;
69244;SDS011;56357;52.304;4.870;2022-11-10T09:45:04;7.88;;;1.23;;
69244;SDS011;56357;52.304;4.870;2022-11-10T09:47:33;9.60;;;1.50;;
69244;SDS011;56357;52.304;4.870;2022-11-10T09:50:06;10.55;;;1.20;;
69244;SDS011;56357;52.304;4.870;2022-11-10T09:52:39;5.18;;;1.02;;
69244;SDS011;56357;52.304;4.870;2022-11-10T09:55:52;7.38;;;1.25;;
69244;SDS011;56357;52.304;4.870;2022-11-10T09:58:16;8.55;;;1.50;;
69244;SDS011;56357;52.304;4.870;2022-11-10T10:00:49;8.10;;;1.63;;
69244;SDS011;56357;52.304;4.870;2022-11-10T10:03:26;11.25;;;2.05;;
69244;SDS011;56357;52.304;4.870;2022-11-10T10:06:10;8.30;;;1.23;;
69244;SDS011;56357;52.304;4.870;2022-11-10T10:11:28;9.63;;;1.00;;
69244;SDS011;56357;52.304;4.870;2022-11-10T10:16:47;8.40;;;1.17;;
69244;SDS011;56357;52.304;4.870;2022-11-10T10:24:48;6.07;;;0.98;;
69244;SDS011;56357;52.304;4.870;2022-11-10T10:27:21;7.25;;;1.48;;
69244;SDS011;56357;52.304;4.870;2022-11-10T10:29:51;7.20;;;1.30;;
69244;SDS011;56357;52.304;4.870;2022-11-10T10:32:18;7.72;;;1.52;;
69244;SDS011;56357;52.304;4.870;2022-11-10T10:34:46;4.63;;;1.08;;
69244;SDS011;56357;52.304;4.870;2022-11-10T10:39:45;7.35;;;1.25;;
69244;SDS011;56357;52.304;4.870;2022-11-10T10:42:17;8.88;;;1.30;;
69244;SDS011;56357;52.304;4.870;2022-11-10T10:47:53;7.40;;;1.15;;
69244;SDS011;56357;52.304;4.870;2022-11-10T10:50:23;5.32;;;0.93;;
69244;SDS011;56357;52.304;4.870;2022-11-10T11:01:00;6.00;;;1.05;;
69244;SDS011;56357;52.304;4.870;2022-11-10T11:03:38;7.13;;;1.10;;
69244;SDS011;56357;52.304;4.870;2022-11-10T11:08:54;9.13;;;1.50;;
69244;SDS011;56357;52.304;4.870;2022-11-10T11:11:30;6.43;;;1.10;;
69244;SDS011;56357;52.304;4.870;2022-11-10T11:17:11;7.20;;;1.55;;
69244;SDS011;56357;52.304;4.870;2022-11-10T11:19:39;6.60;;;1.23;;
69244;SDS011;56357;52.304;4.870;2022-11-10T11:30:26;5.68;;;1.20;;
69244;SDS011;56357;52.304;4.870;2022-11-10T11:46:32;5.95;;;0.98;;
69244;SDS011;56357;52.304;4.870;2022-11-10T11:49:22;4.50;;;0.80;;
69244;SDS011;56357;52.304;4.870;2022-11-10T12:03:39;5.47;;;0.85;;
69244;SDS011;56357;52.304;4.870;2022-11-10T12:09:25;5.15;;;1.00;;
69244;SDS011;56357;52.304;4.870;2022-11-10T12:15:03;7.28;;;0.88;;
69244;SDS011;56357;52.304;4.870;2022-11-10T12:20:41;9.88;;;1.40;;
69244;SDS011;56357;52.304;4.870;2022-11-10T12:25:52;4.78;;;1.20;;
69244;SDS011;56357;52.304;4.870;2022-11-10T12:28:33;5.88;;;0.90;;
69244;SDS011;56357;52.304;4.870;2022-11-10T12:31:04;5.55;;;1.17;;
69244;SDS011;56357;52.304;4.870;2022-11-10T12:33:38;8.15;;;0.98;;
69244;SDS011;56357;52.304;4.870;2022-11-10T12:36:24;5.65;;;1.33;;
69244;SDS011;56357;52.304;4.870;2022-11-10T12:38:57;6.80;;;0.80;;
69244;SDS011;56357;52.304;4.870;2022-11-10T12:41:37;7.97;;;1.17;;
69244;SDS011;56357;52.304;4.870;2022-11-10T12:46:59;6.93;;;1.10;;
69244;SDS011;56357;52.304;4.870;2022-11-10T12:49:37;5.55;;;0.90;;
69244;SDS011;56357;52.304;4.870;2022-11-10T12:52:14;6.18;;;1.02;;
69244;SDS011;56357;52.304;4.870;2022-11-10T12:55:16;5.57;;;0.95;;
69244;SDS011;56357;52.304;4.870;2022-11-10T12:57:46;7.68;;;1.27;;
69244;SDS011;56357;52.304;4.870;2022-11-10T13:02:46;5.53;;;0.80;;
69244;SDS011;56357;52.304;4.870;2022-11-10T13:07:40;5.78;;;0.70;;
69244;SDS011;56357;52.304;4.870;2022-11-10T13:10:27;4.40;;;0.80;;
69244;SDS011;56357;52.304;4.870;2022-11-10T13:18:06;4.65;;;1.02;;
69244;SDS011;56357;52.304;4.870;2022-11-10T13:23:31;7.28;;;1.10;;
69244;SDS011;56357;52.304;4.870;2022-11-10T13:31:56;5.03;;;1.05;;
69244;SDS011;56357;52.304;4.870;2022-11-10T13:34:44;5.63;;;0.70;;
69244;SDS011;56357;52.304;4.870;2022-11-10T13:42:43;6.22;;;1.00;;
69244;SDS011;56357;52.304;4.870;2022-11-10T13:45:44;5.13;;;0.70;;
69244;SDS011;56357;52.304;4.870;2022-11-10T13:58:53;4.70;;;0.75;;
69244;SDS011;56357;52.304;4.870;2022-11-10T14:01:22;5.90;;;0.80;;
69244;SDS011;56357;52.304;4.870;2022-11-10T14:03:53;6.35;;;1.00;;
69244;SDS011;56357;52.304;4.870;2022-11-10T14:09:25;4.93;;;0.90;;
69244;SDS011;56357;52.304;4.870;2022-11-10T14:11:58;6.78;;;0.93;;
69244;SDS011;56357;52.304;4.870;2022-11-10T14:17:14;7.20;;;0.95;;
69244;SDS011;56357;52.304;4.870;2022-11-10T14:19:44;8.15;;;0.80;;
69244;SDS011;56357;52.304;4.870;2022-11-10T14:22:23;6.03;;;0.95;;
69244;SDS011;56357;52.304;4.870;2022-11-10T14:25:04;5.70;;;1.10;;
69244;SDS011;56357;52.304;4.870;2022-11-10T14:27:42;8.50;;;1.30;;
69244;SDS011;56357;52.304;4.870;2022-11-10T14:33:00;9.13;;;1.55;;
69244;SDS011;56357;52.304;4.870;2022-11-10T14:35:28;4.75;;;0.98;;
69244;SDS011;56357;52.304;4.870;2022-11-10T14:38:01;5.65;;;0.80;;
69244;SDS011;56357;52.304;4.870;2022-11-10T14:40:30;7.00;;;1.00;;
69244;SDS011;56357;52.304;4.870;2022-11-10T14:42:56;6.70;;;0.98;;
69244;SDS011;56357;52.304;4.870;2022-11-10T14:45:24;5.28;;;0.82;;
69244;SDS011;56357;52.304;4.870;2022-11-10T14:47:53;6.18;;;0.90;;
69244;SDS011;56357;52.304;4.870;2022-11-10T14:50:30;5.93;;;1.00;;
69244;SDS011;56357;52.304;4.870;2022-11-10T14:53:00;4.63;;;1.03;;
69244;SDS011;56357;52.304;4.870;2022-11-10T14:55:30;5.50;;;0.73;;
69244;SDS011;56357;52.304;4.870;2022-11-10T15:00:57;5.97;;;0.90;;
69244;SDS011;56357;52.304;4.870;2022-11-10T15:03:35;5.03;;;0.82;;
69244;SDS011;56357;52.304;4.870;2022-11-10T15:06:06;5.87;;;0.80;;
69244;SDS011;56357;52.304;4.870;2022-11-10T15:08:34;8.30;;;0.93;;
69244;SDS011;56357;52.304;4.870;2022-11-10T15:11:01;5.70;;;0.88;;
69244;SDS011;56357;52.304;4.870;2022-11-10T15:21:51;6.55;;;0.82;;
69244;SDS011;56357;52.304;4.870;2022-11-10T15:24:18;4.72;;;0.80;;
69244;SDS011;56357;52.304;4.870;2022-11-10T15:26:51;4.32;;;0.85;;
69244;SDS011;56357;52.304;4.870;2022-11-10T15:29:21;6.95;;;1.10;;
69244;SDS011;56357;52.304;4.870;2022-11-10T15:31:49;5.55;;;0.85;;
69244;SDS011;56357;52.304;4.870;2022-11-10T15:37:08;5.97;;;0.80;;
69244;SDS011;56357;52.304;4.870;2022-11-10T15:39:35;7.20;;;0.80;;
69244;SDS011;56357;52.304;4.870;2022-11-10T15:42:06;6.63;;;1.05;;
69244;SDS011;56357;52.304;4.870;2022-11-10T15:44:38;8.00;;;0.82;;
69244;SDS011;56357;52.304;4.870;2022-11-10T15:47:04;5.57;;;0.73;;
69244;SDS011;56357;52.304;4.870;2022-11-10T15:49:33;8.65;;;0.90;;
69244;SDS011;56357;52.304;4.870;2022-11-10T15:52:03;8.90;;;0.90;;
69244;SDS011;56357;52.304;4.870;2022-11-10T15:54:32;12.77;;;1.17;;
69244;SDS011;56357;52.304;4.870;2022-11-10T15:57:01;9.70;;;1.67;;
69244;SDS011;56357;52.304;4.870;2022-11-10T15:59:27;9.38;;;1.90;;
69244;SDS011;56357;52.304;4.870;2022-11-10T16:01:54;12.20;;;2.38;;
69244;SDS011;56357;52.304;4.870;2022-11-10T16:04:21;12.82;;;3.63;;
69244;SDS011;56357;52.304;4.870;2022-11-10T16:06:47;11.13;;;2.30;;
69244;SDS011;56357;52.304;4.870;2022-11-10T16:09:13;10.88;;;1.85;;
69244;SDS011;56357;52.304;4.870;2022-11-10T16:11:41;9.50;;;2.33;;
69244;SDS011;56357;52.304;4.870;2022-11-10T16:14:11;9.63;;;1.80;;
69244;SDS011;56357;52.304;4.870;2022-11-10T16:16:40;10.93;;;1.80;;
69244;SDS011;56357;52.304;4.870;2022-11-10T16:19:10;12.85;;;2.10;;
69244;SDS011;56357;52.304;4.870;2022-11-10T16:21:37;12.40;;;1.70;;
69244;SDS011;56357;52.304;4.870;2022-11-10T16:24:03;11.18;;;1.63;;
69244;SDS011;56357;52.304;4.870;2022-11-10T16:26:30;12.85;;;2.40;;
69244;SDS011;56357;52.304;4.870;2022-11-10T16:28:58;13.38;;;2.00;;
69244;SDS011;56357;52.304;4.870;2022-11-10T16:31:25;12.88;;;1.90;;
69244;SDS011;56357;52.304;4.870;2022-11-10T16:33:52;9.50;;;2.03;;
69244;SDS011;56357;52.304;4.870;2022-11-10T16:38:55;10.50;;;2.03;;
69244;SDS011;56357;52.304;4.870;2022-11-10T16:41:22;8.88;;;1.75;;
69244;SDS011;56357;52.304;4.870;2022-11-10T16:43:49;9.75;;;1.52;;
69244;SDS011;56357;52.304;4.870;2022-11-10T16:46:22;10.35;;;1.92;;
69244;SDS011;56357;52.304;4.870;2022-11-10T16:48:51;9.63;;;2.20;;
69244;SDS011;56357;52.304;4.870;2022-11-10T16:51:30;10.80;;;2.20;;
69244;SDS011;56357;52.304;4.870;2022-11-10T16:54:02;9.93;;;1.80;;
69244;SDS011;56357;52.304;4.870;2022-11-10T16:56:29;8.32;;;1.23;;
69244;SDS011;56357;52.304;4.870;2022-11-10T16:58:55;9.27;;;1.67;;
69244;SDS011;56357;52.304;4.870;2022-11-10T17:01:22;10.85;;;1.88;;
69244;SDS011;56357;52.304;4.870;2022-11-10T17:03:54;12.98;;;1.70;;
69244;SDS011;56357;52.304;4.870;2022-11-10T17:06:24;9.93;;;1.80;;
69244;SDS011;56357;52.304;4.870;2022-11-10T17:08:52;7.20;;;1.27;;
69244;SDS011;56357;52.304;4.870;2022-11-10T17:11:21;9.23;;;1.70;;
69244;SDS011;56357;52.304;4.870;2022-11-10T17:13:50;10.55;;;1.50;;
69244;SDS011;56357;52.304;4.870;2022-11-10T17:19:00;12.73;;;2.03;;
69244;SDS011;56357;52.304;4.870;2022-11-10T17:21:28;12.88;;;1.30;;
69244;SDS011;56357;52.304;4.870;2022-11-10T17:23:58;10.75;;;1.27;;
69244;SDS011;56357;52.304;4.870;2022-11-10T17:26:25;9.40;;;1.30;;